createdAt,value
2018-03-28T00:00:22.691Z,1000.54
2018-03-28T00:01:31.971Z,1000.56
2018-03-28T00:02:40.986Z,1000.52
2018-03-28T00:03:49.851Z,1000.58
2018-03-28T00:04:58.982Z,1000.59
2018-03-28T00:06:08.237Z,1000.54
2018-03-28T00:07:17.942Z,1000.51
2018-03-28T00:08:26.953Z,1000.57
2018-03-28T00:09:35.978Z,1000.62
2018-03-28T00:10:44.995Z,1000.59
2018-03-28T00:11:54.311Z,1000.6
2018-03-28T00:13:04.385Z,1000.59
2018-03-28T00:14:14.348Z,1000.56
2018-03-28T00:15:23.572Z,1000.58
2018-03-28T00:16:32.583Z,1000.57
2018-03-28T00:17:42.140Z,1000.58
2018-03-28T00:18:51.244Z,1000.6
2018-03-28T00:20:00.607Z,1000.62
2018-03-28T00:21:10.228Z,1000.63
2018-03-28T00:22:19.336Z,1000.61
2018-03-28T00:23:28.125Z,1000.62
2018-03-28T00:24:37.696Z,1000.58
2018-03-28T00:25:46.529Z,1000.58
2018-03-28T00:26:55.286Z,1000.58
2018-03-28T00:28:04.108Z,1000.57
2018-03-28T00:29:13.480Z,1000.53
2018-03-28T00:30:22.563Z,1000.53
2018-03-28T00:31:31.702Z,1000.58
2018-03-28T00:32:41.306Z,1000.52
2018-03-28T00:33:50.464Z,1000.5
2018-03-28T00:34:59.772Z,1000.5
2018-03-28T00:36:08.868Z,1000.5
2018-03-28T00:37:18.502Z,1000.45
2018-03-28T00:38:27.266Z,1000.44
2018-03-28T00:39:36.636Z,1000.41
2018-03-28T00:40:45.811Z,1000.42
2018-03-28T00:41:55.344Z,1000.39
2018-03-28T00:43:04.695Z,1000.37
2018-03-28T00:44:14.372Z,1000.33
2018-03-28T00:45:23.400Z,1000.33
2018-03-28T00:46:32.644Z,1000.33
2018-03-28T00:47:41.758Z,1000.31
2018-03-28T00:48:50.639Z,1000.33
2018-03-28T00:49:59.538Z,1000.28
2018-03-28T00:51:08.966Z,1000.27
2018-03-28T00:52:18.382Z,1000.24
2018-03-28T00:53:28.056Z,1000.24
2018-03-28T00:54:37.745Z,1000.28
2018-03-28T00:55:46.943Z,1000.25
2018-03-28T00:56:55.701Z,1000.25
2018-03-28T00:58:04.709Z,1000.26
2018-03-28T00:59:13.838Z,1000.25
2018-03-28T01:00:23.176Z,1000.22
2018-03-28T01:01:31.943Z,1000.24
2018-03-28T01:02:40.964Z,1000.24
2018-03-28T01:03:50.013Z,1000.25
2018-03-28T01:04:59.337Z,1000.21
2018-03-28T01:06:08.360Z,1000.21
2018-03-28T01:07:17.759Z,1000.19
2018-03-28T01:08:27.052Z,1000.15
2018-03-28T01:09:35.830Z,1000.14
2018-03-28T01:10:44.864Z,1000.12
2018-03-28T01:11:53.899Z,1000.15
2018-03-28T01:13:02.777Z,1000.14
2018-03-28T01:14:12.402Z,1000.17
2018-03-28T01:15:21.566Z,1000.15
2018-03-28T01:16:30.531Z,1000.14
2018-03-28T01:17:39.565Z,1000.15
2018-03-28T01:18:48.791Z,1000.16
2018-03-28T01:19:57.682Z,1000.15
2018-03-28T01:21:06.929Z,1000.09
2018-03-28T01:22:16.329Z,1000.12
2018-03-28T01:23:25.258Z,1000.11
2018-03-28T01:24:34.290Z,1000.05
2018-03-28T01:25:43.407Z,1000.09
2018-03-28T01:26:52.423Z,1000.12
2018-03-28T01:28:01.393Z,1000.12
2018-03-28T01:29:10.408Z,1000.11
2018-03-28T01:30:19.422Z,1000.08
2018-03-28T01:31:28.811Z,1000.09
2018-03-28T01:32:37.901Z,1000.07
2018-03-28T01:33:46.950Z,1000.1
2018-03-28T01:34:56.012Z,1000.08
2018-03-28T01:36:05.057Z,1000.08
2018-03-28T01:37:13.873Z,1000.11
2018-03-28T01:38:23.014Z,1000.13
2018-03-28T01:39:32.138Z,1000.17
2018-03-28T01:40:40.952Z,1000.18
2018-03-28T01:41:50.301Z,1000.21
2018-03-28T01:42:59.666Z,1000.2
2018-03-28T01:44:09.218Z,1000.19
2018-03-28T01:45:18.274Z,1000.18
2018-03-28T01:46:27.445Z,1000.18
2018-03-28T01:47:36.870Z,1000.17
2018-03-28T01:48:45.972Z,1000.13
2018-03-28T01:49:54.788Z,1000.16
2018-03-28T01:51:04.257Z,1000.16
2018-03-28T01:52:13.381Z,1000.14
2018-03-28T01:53:22.479Z,1000.18
2018-03-28T01:54:31.906Z,1000.14
2018-03-28T01:55:41.469Z,1000.14
2018-03-28T01:56:50.604Z,1000.12
2018-03-28T01:57:59.678Z,1000.11
2018-03-28T01:59:08.811Z,1000.13
2018-03-28T02:00:18.590Z,1000.14
2018-03-28T02:01:28.053Z,1000.15
2018-03-28T02:02:37.129Z,1000.21
2018-03-28T02:03:46.320Z,1000.18
2018-03-28T02:04:55.725Z,1000.19
2018-03-28T02:06:05.375Z,1000.17
2018-03-28T02:07:14.191Z,1000.16
2018-03-28T02:08:23.018Z,1000.16
2018-03-28T02:09:32.039Z,1000.17
2018-03-28T02:10:40.892Z,1000.19
2018-03-28T02:11:49.954Z,1000.17
2018-03-28T02:12:58.836Z,1000.2
2018-03-28T02:14:07.869Z,1000.25
2018-03-28T02:15:17.326Z,1000.26
2018-03-28T02:16:27.019Z,1000.21
2018-03-28T02:17:36.093Z,1000.25
2018-03-28T02:18:45.510Z,1000.26
2018-03-28T02:19:55.034Z,1000.24
2018-03-28T02:21:04.053Z,1000.25
2018-03-28T02:22:13.188Z,1000.22
2018-03-28T02:23:21.967Z,1000.24
2018-03-28T02:24:30.815Z,1000.21
2018-03-28T02:25:39.863Z,1000.21
2018-03-28T02:26:49.500Z,1000.22
2018-03-28T02:27:59.309Z,1000.21
2018-03-28T02:29:08.908Z,1000.23
2018-03-28T02:30:18.236Z,1000.26
2018-03-28T02:31:26.938Z,1000.23
2018-03-28T02:32:36.570Z,1000.26
2018-03-28T02:33:46.216Z,1000.3
2018-03-28T02:34:55.760Z,1000.29
2018-03-28T02:36:04.761Z,1000.24
2018-03-28T02:37:14.064Z,1000.27
2018-03-28T02:38:23.623Z,1000.24
2018-03-28T02:39:33.146Z,1000.27
2018-03-28T02:40:42.207Z,1000.28
2018-03-28T02:41:52.165Z,1000.28
2018-03-28T02:43:01.301Z,1000.28
2018-03-28T02:44:10.893Z,1000.26
2018-03-28T02:45:19.620Z,1000.24
2018-03-28T02:46:28.982Z,1000.22
2018-03-28T02:47:38.625Z,1000.21
2018-03-28T02:48:47.610Z,1000.24
2018-03-28T02:49:57.710Z,1000.25
2018-03-28T02:51:06.577Z,1000.27
2018-03-28T02:52:16.156Z,1000.25
2018-03-28T02:53:25.039Z,1000.3
2018-03-28T02:54:34.165Z,1000.28
2018-03-28T02:55:43.639Z,1000.27
2018-03-28T02:56:52.370Z,1000.27
2018-03-28T02:58:01.454Z,1000.23
2018-03-28T02:59:10.541Z,1000.3
2018-03-28T03:00:19.592Z,1000.3
2018-03-28T03:01:29.063Z,1000.34
2018-03-28T03:02:38.631Z,1000.32
2018-03-28T03:03:47.558Z,1000.3
2018-03-28T03:04:56.648Z,1000.29
2018-03-28T03:06:05.958Z,1000.29
2018-03-28T03:07:15.202Z,1000.29
2018-03-28T03:08:24.266Z,1000.27
2018-03-28T03:09:33.666Z,1000.22
2018-03-28T03:10:42.774Z,1000.24
2018-03-28T03:11:52.192Z,1000.23
2018-03-28T03:13:01.334Z,1000.24
2018-03-28T03:14:10.982Z,1000.26
2018-03-28T03:15:20.063Z,1000.26
2018-03-28T03:16:29.431Z,1000.24
2018-03-28T03:17:38.228Z,1000.27
2018-03-28T03:18:47.046Z,1000.28
2018-03-28T03:19:56.647Z,1000.21
2018-03-28T03:21:05.776Z,1000.23
2018-03-28T03:22:14.631Z,1000.24
2018-03-28T03:23:24.156Z,1000.25
2018-03-28T03:24:33.178Z,1000.25
2018-03-28T03:25:42.462Z,1000.28
2018-03-28T03:26:51.379Z,1000.28
2018-03-28T03:28:00.520Z,1000.32
2018-03-28T03:29:09.857Z,1000.34
2018-03-28T03:30:18.984Z,1000.32
2018-03-28T03:31:28.264Z,1000.28
2018-03-28T03:32:37.940Z,1000.3
2018-03-28T03:33:48.071Z,1000.28
2018-03-28T03:34:56.870Z,1000.25
2018-03-28T03:36:05.956Z,1000.27
2018-03-28T03:37:15.453Z,1000.28
2018-03-28T03:38:24.260Z,1000.27
2018-03-28T03:39:33.370Z,1000.26
2018-03-28T03:40:42.144Z,1000.28
2018-03-28T03:41:51.210Z,1000.24
2018-03-28T03:43:00.390Z,1000.23
2018-03-28T03:44:10.037Z,1000.25
2018-03-28T03:45:19.386Z,1000.27
2018-03-28T03:46:28.777Z,1000.26
2018-03-28T03:47:37.696Z,1000.27
2018-03-28T03:48:46.742Z,1000.22
2018-03-28T03:49:55.974Z,1000.25
2018-03-28T03:51:04.773Z,1000.22
2018-03-28T03:52:14.386Z,1000.22
2018-03-28T03:53:23.811Z,1000.22
2018-03-28T03:54:32.655Z,1000.26
2018-03-28T03:55:41.825Z,1000.22
2018-03-28T03:56:50.877Z,1000.28
2018-03-28T03:58:00.749Z,1000.23
2018-03-28T03:59:10.184Z,1000.24
2018-03-28T04:00:19.635Z,1000.23
2018-03-28T04:01:29.300Z,1000.25
2018-03-28T04:02:38.192Z,1000.23
2018-03-28T04:03:47.371Z,1000.24
2018-03-28T04:04:56.256Z,1000.22
2018-03-28T04:06:06.254Z,1000.27
2018-03-28T04:07:15.397Z,1000.25
2018-03-28T04:08:24.736Z,1000.21
2018-03-28T04:09:33.820Z,1000.22
2018-03-28T04:10:42.632Z,1000.21
2018-03-28T04:11:51.775Z,1000.2
2018-03-28T04:13:01.356Z,1000.21
2018-03-28T04:14:10.427Z,1000.23
2018-03-28T04:15:19.767Z,1000.2
2018-03-28T04:16:28.542Z,1000.22
2018-03-28T04:17:37.356Z,1000.21
2018-03-28T04:18:46.993Z,1000.19
2018-03-28T04:19:56.289Z,1000.25
2018-03-28T04:21:05.435Z,1000.23
2018-03-28T04:22:14.612Z,1000.26
2018-03-28T04:23:23.706Z,1000.26
2018-03-28T04:24:33.322Z,1000.27
2018-03-28T04:25:42.686Z,1000.27
2018-03-28T04:26:52.059Z,1000.27
2018-03-28T04:28:00.911Z,1000.25
2018-03-28T04:29:09.686Z,1000.24
2018-03-28T04:30:19.067Z,1000.27
2018-03-28T04:31:28.165Z,1000.27
2018-03-28T04:32:37.761Z,1000.29
2018-03-28T04:33:46.504Z,1000.31
2018-03-28T04:34:56.144Z,1000.3
2018-03-28T04:36:05.266Z,1000.33
2018-03-28T04:37:14.018Z,1000.29
2018-03-28T04:38:23.088Z,1000.32
2018-03-28T04:39:31.805Z,1000.34
2018-03-28T04:40:41.102Z,1000.33
2018-03-28T04:41:50.194Z,1000.35
2018-03-28T04:42:59.618Z,1000.33
2018-03-28T04:44:09.469Z,1000.37
2018-03-28T04:45:18.188Z,1000.38
2018-03-28T04:46:27.695Z,1000.37
2018-03-28T04:47:37.279Z,1000.39
2018-03-28T04:48:46.622Z,1000.39
2018-03-28T04:49:55.618Z,1000.4
2018-03-28T04:51:04.707Z,1000.36
2018-03-28T04:52:13.480Z,1000.35
2018-03-28T04:53:22.277Z,1000.39
2018-03-28T04:54:31.519Z,1000.36
2018-03-28T04:55:40.302Z,1000.34
2018-03-28T04:56:49.901Z,1000.33
2018-03-28T04:57:58.612Z,1000.35
2018-03-28T04:59:07.931Z,1000.34
2018-03-28T05:00:17.257Z,1000.33
2018-03-28T05:01:26.574Z,1000.38
2018-03-28T05:02:35.808Z,1000.34
2018-03-28T05:03:45.094Z,1000.34
2018-03-28T05:04:54.421Z,1000.35
2018-03-28T05:06:03.405Z,1000.36
2018-03-28T05:07:12.932Z,1000.36
2018-03-28T05:08:21.990Z,1000.38
2018-03-28T05:09:31.065Z,1000.38
2018-03-28T05:10:40.173Z,1000.36
2018-03-28T05:11:49.343Z,1000.37
2018-03-28T05:12:58.485Z,1000.36
2018-03-28T05:14:07.925Z,1000.38
2018-03-28T05:15:16.736Z,1000.41
2018-03-28T05:16:25.822Z,1000.39
2018-03-28T05:17:34.908Z,1000.45
2018-03-28T05:18:44.234Z,1000.46
2018-03-28T05:19:53.496Z,1000.46
2018-03-28T05:21:02.505Z,1000.53
2018-03-28T05:22:12.147Z,1000.52
2018-03-28T05:23:21.514Z,1000.52
2018-03-28T05:24:30.794Z,1000.51
2018-03-28T05:25:40.125Z,1000.53
2018-03-28T05:26:49.205Z,1000.56
2018-03-28T05:27:59.282Z,1000.55
2018-03-28T05:29:08.095Z,1000.55
2018-03-28T05:30:17.302Z,1000.56
2018-03-28T05:31:26.843Z,1000.58
2018-03-28T05:32:36.165Z,1000.55
2018-03-28T05:33:45.181Z,1000.59
2018-03-28T05:34:54.152Z,1000.54
2018-03-28T05:36:03.774Z,1000.55
2018-03-28T05:37:12.598Z,1000.55
2018-03-28T05:38:21.877Z,1000.57
2018-03-28T05:39:31.114Z,1000.57
2018-03-28T05:40:40.676Z,1000.6
2018-03-28T05:41:49.674Z,1000.59
2018-03-28T05:42:58.722Z,1000.55
2018-03-28T05:44:07.699Z,1000.57
2018-03-28T05:45:16.775Z,1000.58
2018-03-28T05:46:25.887Z,1000.53
2018-03-28T05:47:35.045Z,1000.56
2018-03-28T05:48:44.458Z,1000.52
2018-03-28T05:49:53.746Z,1000.54
2018-03-28T05:51:03.125Z,1000.59
2018-03-28T05:52:11.881Z,1000.62
2018-03-28T05:53:21.142Z,1000.61
2018-03-28T05:54:30.388Z,1000.65
2018-03-28T05:55:39.749Z,1000.64
2018-03-28T05:56:48.823Z,1000.61
2018-03-28T05:57:59.100Z,1000.64
2018-03-28T05:59:08.151Z,1000.62
2018-03-28T06:00:17.721Z,1000.62
2018-03-28T06:01:27.340Z,1000.6
2018-03-28T06:02:36.415Z,1000.59
2018-03-28T06:03:45.762Z,1000.61
2018-03-28T06:04:55.100Z,1000.62
2018-03-28T06:06:03.837Z,1000.61
2018-03-28T06:07:12.805Z,1000.6
2018-03-28T06:08:21.824Z,1000.67
2018-03-28T06:09:30.844Z,1000.66
2018-03-28T06:10:39.873Z,1000.62
2018-03-28T06:11:49.485Z,1000.63
2018-03-28T06:12:58.367Z,1000.6
2018-03-28T06:14:07.832Z,1000.62
2018-03-28T06:15:17.144Z,1000.62
2018-03-28T06:16:26.232Z,1000.62
2018-03-28T06:17:35.088Z,1000.62
2018-03-28T06:18:43.898Z,1000.67
2018-03-28T06:19:52.948Z,1000.65
2018-03-28T06:21:02.259Z,1000.63
2018-03-28T06:22:12.087Z,1000.66
2018-03-28T06:23:20.885Z,1000.73
2018-03-28T06:24:29.920Z,1000.66
2018-03-28T06:25:38.937Z,1000.64
2018-03-28T06:26:47.780Z,1000.65
2018-03-28T06:27:56.845Z,1000.65
2018-03-28T06:29:05.847Z,1000.65
2018-03-28T06:30:15.191Z,1000.65
2018-03-28T06:31:24.740Z,1000.64
2018-03-28T06:32:34.064Z,1000.63
2018-03-28T06:33:43.146Z,1000.59
2018-03-28T06:34:52.144Z,1000.63
2018-03-28T06:36:01.650Z,1000.62
2018-03-28T06:37:10.505Z,1000.55
2018-03-28T06:38:19.224Z,1000.57
2018-03-28T06:39:28.409Z,1000.55
2018-03-28T06:40:37.825Z,1000.49
2018-03-28T06:41:47.135Z,1000.47
2018-03-28T06:42:56.197Z,1000.45
2018-03-28T06:44:05.280Z,1000.44
2018-03-28T06:45:14.734Z,1000.4
2018-03-28T06:46:24.294Z,1000.39
2018-03-28T06:47:33.101Z,1000.38
2018-03-28T06:48:41.915Z,1000.42
2018-03-28T06:49:50.703Z,1000.49
2018-03-28T06:50:59.462Z,1000.47
2018-03-28T06:52:08.998Z,1000.47
2018-03-28T06:53:17.989Z,1000.47
2018-03-28T06:54:27.418Z,1000.48
2018-03-28T06:55:36.730Z,1000.49
2018-03-28T06:56:46.288Z,1000.5
2018-03-28T06:57:55.669Z,1000.44
2018-03-28T06:59:04.365Z,1000.4
2018-03-28T07:00:13.118Z,1000.42
2018-03-28T07:01:22.008Z,1000.45
2018-03-28T07:02:31.261Z,1000.46
2018-03-28T07:03:40.258Z,1000.44
2018-03-28T07:04:49.126Z,1000.45
2018-03-28T07:05:58.707Z,1000.49
2018-03-28T07:07:07.809Z,1000.47
2018-03-28T07:08:16.859Z,1000.46
2018-03-28T07:09:25.650Z,1000.42
2018-03-28T07:10:34.908Z,1000.37
2018-03-28T07:11:43.981Z,1000.34
2018-03-28T07:12:53.154Z,1000.33
2018-03-28T07:14:02.255Z,1000.35
2018-03-28T07:15:11.309Z,1000.37
2018-03-28T07:16:20.937Z,1000.38
2018-03-28T07:17:30.043Z,1000.41
2018-03-28T07:18:39.154Z,1000.39
2018-03-28T07:19:48.019Z,1000.45
2018-03-28T07:20:57.110Z,1000.44
2018-03-28T07:22:06.132Z,1000.4
2018-03-28T07:23:15.129Z,1000.42
2018-03-28T07:24:23.876Z,1000.4
2018-03-28T07:25:32.951Z,1000.41
2018-03-28T07:26:41.778Z,1000.42
2018-03-28T07:27:50.525Z,1000.42
2018-03-28T07:29:00.172Z,1000.49
2018-03-28T07:30:09.270Z,1000.45
2018-03-28T07:31:18.431Z,1000.47
2018-03-28T07:32:27.585Z,1000.42
2018-03-28T07:33:36.465Z,1000.45
2018-03-28T07:34:45.424Z,1000.42
2018-03-28T07:35:54.431Z,1000.41
2018-03-28T07:37:03.803Z,1000.39
2018-03-28T07:38:13.129Z,1000.38
2018-03-28T07:39:22.967Z,1000.38
2018-03-28T07:40:32.743Z,1000.37
2018-03-28T07:41:42.759Z,1000.36
2018-03-28T07:42:52.372Z,1000.33
2018-03-28T07:44:01.245Z,1000.34
2018-03-28T07:45:10.343Z,1000.36
2018-03-28T07:46:20.147Z,1000.34
2018-03-28T07:47:29.582Z,1000.33
2018-03-28T07:48:38.983Z,1000.34
2018-03-28T07:49:48.187Z,1000.32
2018-03-28T07:50:57.310Z,1000.33
2018-03-28T07:52:06.361Z,1000.33
2018-03-28T07:53:15.484Z,1000.27
2018-03-28T07:54:24.764Z,1000.2
2018-03-28T07:55:33.581Z,1000.21
2018-03-28T07:56:42.864Z,1000.25
2018-03-28T07:57:52.030Z,1000.16
2018-03-28T07:59:01.061Z,1000.2
2018-03-28T08:00:10.119Z,1000.23
2018-03-28T08:01:19.299Z,1000.19
2018-03-28T08:02:28.109Z,1000.23
2018-03-28T08:03:37.662Z,1000.21
2018-03-28T08:04:46.864Z,1000.12
2018-03-28T08:05:56.043Z,1000.08
2018-03-28T08:07:05.136Z,1000.1
2018-03-28T08:08:14.331Z,1000.12
2018-03-28T08:09:23.851Z,1000.1
2018-03-28T08:10:33.651Z,1000.08
2018-03-28T08:11:43.188Z,1000.12
2018-03-28T08:12:52.362Z,1000.11
2018-03-28T08:14:01.384Z,1000.11
2018-03-28T08:15:10.491Z,1000.08
2018-03-28T08:16:20.104Z,1000.09
2018-03-28T08:17:29.455Z,1000.11
2018-03-28T08:18:38.358Z,1000.12
2018-03-28T08:19:47.161Z,1000.04
2018-03-28T08:20:56.444Z,1000.02
2018-03-28T08:22:05.625Z,1000.01
2018-03-28T08:23:15.153Z,999.99
2018-03-28T08:24:24.223Z,999.99
2018-03-28T08:25:33.386Z,999.94
2018-03-28T08:26:42.621Z,999.9
2018-03-28T08:27:51.860Z,999.89
2018-03-28T08:29:01.453Z,999.87
2018-03-28T08:30:10.520Z,999.87
2018-03-28T08:31:20.026Z,999.88
2018-03-28T08:32:28.847Z,999.91
2018-03-28T08:33:37.631Z,999.88
2018-03-28T08:34:46.820Z,999.87
2018-03-28T08:35:55.795Z,999.87
2018-03-28T08:37:04.647Z,999.86
2018-03-28T08:38:14.235Z,999.88
2018-03-28T08:39:23.280Z,999.85
2018-03-28T08:40:32.244Z,999.89
2018-03-28T08:41:41.440Z,999.86
2018-03-28T08:42:50.300Z,999.86
2018-03-28T08:43:59.102Z,999.86
2018-03-28T08:45:08.410Z,999.86
2018-03-28T08:46:17.395Z,999.86
2018-03-28T08:47:26.659Z,999.83
2018-03-28T08:48:36.133Z,999.82
2018-03-28T08:49:45.572Z,999.8
2018-03-28T08:50:54.614Z,999.78
2018-03-28T08:52:03.598Z,999.82
2018-03-28T08:53:12.541Z,999.8
2018-03-28T08:54:21.642Z,999.78
2018-03-28T08:55:30.617Z,999.79
2018-03-28T08:56:39.404Z,999.77
2018-03-28T08:57:48.679Z,999.75
2018-03-28T08:58:57.719Z,999.76
2018-03-28T09:00:06.972Z,999.76
2018-03-28T09:01:16.370Z,999.73
2018-03-28T09:02:25.379Z,999.73
2018-03-28T09:03:34.192Z,999.75
2018-03-28T09:04:43.545Z,999.77
2018-03-28T09:05:52.531Z,999.8
2018-03-28T09:07:01.454Z,999.79
2018-03-28T09:08:10.677Z,999.79
2018-03-28T09:09:19.923Z,999.8
2018-03-28T09:10:28.711Z,999.77
2018-03-28T09:11:37.936Z,999.77
2018-03-28T09:12:47.273Z,999.79
2018-03-28T09:13:56.477Z,999.76
2018-03-28T09:15:05.516Z,999.68
2018-03-28T09:16:14.694Z,999.72
2018-03-28T09:17:24.141Z,999.7
2018-03-28T09:18:33.657Z,999.71
2018-03-28T09:19:42.835Z,999.63
2018-03-28T09:20:52.392Z,999.64
2018-03-28T09:22:01.412Z,999.63
2018-03-28T09:23:10.234Z,999.59
2018-03-28T09:24:19.924Z,999.57
2018-03-28T09:25:28.899Z,999.54
2018-03-28T09:26:37.939Z,999.5
2018-03-28T09:27:46.740Z,999.51
2018-03-28T09:28:56.188Z,999.49
2018-03-28T09:30:05.609Z,999.5
2018-03-28T09:31:15.228Z,999.51
2018-03-28T09:32:24.452Z,999.47
2018-03-28T09:33:33.976Z,999.44
2018-03-28T09:34:42.933Z,999.47
2018-03-28T09:35:51.931Z,999.43
2018-03-28T09:37:00.902Z,999.48
2018-03-28T09:38:09.772Z,999.42
2018-03-28T09:39:19.022Z,999.44
2018-03-28T09:40:28.791Z,999.43
2018-03-28T09:41:38.223Z,999.42
2018-03-28T09:42:47.785Z,999.41
2018-03-28T09:43:56.568Z,999.36
2018-03-28T09:45:06.505Z,999.3
2018-03-28T09:46:15.351Z,999.31
2018-03-28T09:47:24.569Z,999.31
2018-03-28T09:48:33.695Z,999.34
2018-03-28T09:49:42.734Z,999.31
2018-03-28T09:50:51.831Z,999.29
2018-03-28T09:52:01.119Z,999.34
2018-03-28T09:53:10.748Z,999.32
2018-03-28T09:54:20.050Z,999.36
2018-03-28T09:55:29.213Z,999.34
2018-03-28T09:56:38.562Z,999.39
2018-03-28T09:57:48.095Z,999.35
2018-03-28T09:58:57.727Z,999.36
2018-03-28T10:00:06.737Z,999.33
2018-03-28T10:01:16.140Z,999.34
2018-03-28T10:02:25.283Z,999.3
2018-03-28T10:03:34.859Z,999.32
2018-03-28T10:04:43.955Z,999.27
2018-03-28T10:05:53.302Z,999.23
2018-03-28T10:07:02.526Z,999.25
2018-03-28T10:08:11.235Z,999.23
2018-03-28T10:09:20.231Z,999.15
2018-03-28T10:10:29.018Z,999.19
2018-03-28T10:11:38.008Z,999.11
2018-03-28T10:12:47.091Z,999.16
2018-03-28T10:13:56.559Z,999.15
2018-03-28T10:15:05.874Z,999.19
2018-03-28T10:16:15.204Z,999.22
2018-03-28T10:17:24.248Z,999.19
2018-03-28T10:18:33.074Z,999.19
2018-03-28T10:19:42.377Z,999.17
2018-03-28T10:20:51.808Z,999.14
2018-03-28T10:22:01.150Z,999.14
2018-03-28T10:23:10.279Z,999.11
2018-03-28T10:24:19.378Z,999.1
2018-03-28T10:25:28.281Z,999.08
2018-03-28T10:26:37.942Z,999.08
2018-03-28T10:27:46.759Z,999.06
2018-03-28T10:28:56.770Z,999.02
2018-03-28T10:30:05.809Z,999.03
2018-03-28T10:31:14.920Z,999.01
2018-03-28T10:32:23.752Z,998.99
2018-03-28T10:33:33.103Z,998.99
2018-03-28T10:34:42.178Z,998.99
2018-03-28T10:35:51.704Z,998.97
2018-03-28T10:37:00.436Z,998.98
2018-03-28T10:38:09.532Z,998.93
2018-03-28T10:39:18.882Z,998.9
2018-03-28T10:40:28.502Z,998.89
2018-03-28T10:41:37.786Z,998.85
2018-03-28T10:42:46.907Z,998.86
2018-03-28T10:43:55.807Z,998.83
2018-03-28T10:45:04.701Z,998.75
2018-03-28T10:46:13.619Z,998.77
2018-03-28T10:47:22.994Z,998.75
2018-03-28T10:48:32.163Z,998.74
2018-03-28T10:49:41.356Z,998.75
2018-03-28T10:50:50.172Z,998.7
2018-03-28T10:51:59.476Z,998.67
2018-03-28T10:53:08.856Z,998.66
2018-03-28T10:54:18.521Z,998.63
2018-03-28T10:55:27.917Z,998.54
2018-03-28T10:56:37.195Z,998.6
2018-03-28T10:57:46.043Z,998.48
2018-03-28T10:58:55.377Z,998.5
2018-03-28T11:00:04.761Z,998.45
2018-03-28T11:01:13.869Z,998.41
2018-03-28T11:02:23.029Z,998.42
2018-03-28T11:03:32.359Z,998.33
2018-03-28T11:04:41.236Z,998.36
2018-03-28T11:05:50.332Z,998.33
2018-03-28T11:06:59.771Z,998.27
2018-03-28T11:08:08.817Z,998.3
2018-03-28T11:09:17.907Z,998.28
2018-03-28T11:10:26.688Z,998.24
2018-03-28T11:11:36.038Z,998.24
2018-03-28T11:12:45.603Z,998.23
2018-03-28T11:13:54.964Z,998.15
2018-03-28T11:15:04.249Z,998.14
2018-03-28T11:16:13.854Z,998.12
2018-03-28T11:17:22.765Z,998.11
2018-03-28T11:18:31.707Z,998.1
2018-03-28T11:19:40.879Z,998.08
2018-03-28T11:20:50.065Z,998.04
2018-03-28T11:21:59.017Z,998.03
2018-03-28T11:23:08.214Z,998.02
2018-03-28T11:24:16.946Z,997.95
2018-03-28T11:25:26.406Z,997.9
2018-03-28T11:26:35.465Z,997.93
2018-03-28T11:27:44.187Z,997.9
2018-03-28T11:28:53.432Z,997.87
2018-03-28T11:30:02.788Z,997.82
2018-03-28T11:31:12.746Z,997.79
2018-03-28T11:32:21.746Z,997.77
2018-03-28T11:33:30.923Z,997.75
2018-03-28T11:34:39.930Z,997.75
2018-03-28T11:35:49.201Z,997.74
2018-03-28T11:36:57.887Z,997.78
2018-03-28T11:38:07.245Z,997.66
2018-03-28T11:39:16.522Z,997.67
2018-03-28T11:40:25.818Z,997.63
2018-03-28T11:41:34.993Z,997.6
2018-03-28T11:42:43.735Z,997.57
2018-03-28T11:43:52.496Z,997.55
2018-03-28T11:45:01.825Z,997.56
2018-03-28T11:46:11.115Z,997.54
2018-03-28T11:47:20.604Z,997.51
2018-03-28T11:48:30.202Z,997.51
2018-03-28T11:49:39.732Z,997.5
2018-03-28T11:50:48.394Z,997.51
2018-03-28T11:51:57.600Z,997.43
2018-03-28T11:53:06.799Z,997.5
2018-03-28T11:54:16.164Z,997.46
2018-03-28T11:55:25.455Z,997.39
2018-03-28T11:56:34.169Z,997.34
2018-03-28T11:57:42.943Z,997.34
2018-03-28T11:58:51.978Z,997.32
2018-03-28T12:00:01.187Z,997.29
2018-03-28T12:01:10.445Z,997.27
2018-03-28T12:02:19.574Z,997.24
2018-03-28T12:03:28.288Z,997.25
2018-03-28T12:04:37.322Z,997.23
2018-03-28T12:05:46.338Z,997.19
2018-03-28T12:06:55.649Z,997.18
2018-03-28T12:08:04.621Z,997.13
2018-03-28T12:09:13.865Z,997.09
2018-03-28T12:10:22.895Z,997.04
2018-03-28T12:11:31.888Z,997.01
2018-03-28T12:12:41.127Z,996.96
2018-03-28T12:13:50.399Z,996.91
2018-03-28T12:14:59.592Z,996.87
2018-03-28T12:16:08.365Z,996.81
2018-03-28T12:17:17.918Z,996.82
2018-03-28T12:18:27.116Z,996.78
2018-03-28T12:19:36.081Z,996.78
2018-03-28T12:20:45.032Z,996.7
2018-03-28T12:21:54.062Z,996.73
2018-03-28T12:23:03.297Z,996.7
2018-03-28T12:24:11.999Z,996.74
2018-03-28T12:25:20.965Z,996.68
2018-03-28T12:26:29.660Z,996.65
2018-03-28T12:27:38.695Z,996.64
2018-03-28T12:28:47.916Z,996.6
2018-03-28T12:29:56.879Z,996.57
2018-03-28T12:31:06.364Z,996.57
2018-03-28T12:32:15.320Z,996.56
2018-03-28T12:33:24.848Z,996.52
2018-03-28T12:34:34.406Z,996.52
2018-03-28T12:35:44.211Z,996.56
2018-03-28T12:36:53.114Z,996.54
2018-03-28T12:38:02.363Z,996.55
2018-03-28T12:39:11.814Z,996.5
2018-03-28T12:40:21.088Z,996.48
2018-03-28T12:41:30.561Z,996.52
2018-03-28T12:42:40.376Z,996.49
2018-03-28T12:43:49.510Z,996.43
2018-03-28T12:44:58.544Z,996.51
2018-03-28T12:46:07.356Z,996.45
2018-03-28T12:47:16.555Z,996.41
2018-03-28T12:48:25.648Z,996.42
2018-03-28T12:49:34.909Z,996.41
2018-03-28T12:50:44.410Z,996.37
2018-03-28T12:51:53.838Z,996.35
2018-03-28T12:53:02.768Z,996.31
2018-03-28T12:54:12.220Z,996.27
2018-03-28T12:55:21.663Z,996.33
2018-03-28T12:56:30.935Z,996.24
2018-03-28T12:57:40.036Z,996.23
2018-03-28T12:58:49.107Z,996.21
2018-03-28T12:59:58.436Z,996.15
2018-03-28T13:01:08.454Z,996.14
2018-03-28T13:02:17.793Z,996.13
2018-03-28T13:03:26.553Z,996.13
2018-03-28T13:04:35.606Z,996.12
2018-03-28T13:05:45.158Z,996.08
2018-03-28T13:06:54.183Z,996.07
2018-03-28T13:08:03.443Z,996.03
2018-03-28T13:09:12.656Z,996.04
2018-03-28T13:10:21.431Z,996.01
2018-03-28T13:11:30.462Z,995.98
2018-03-28T13:12:39.807Z,995.95
2018-03-28T13:13:48.871Z,995.93
2018-03-28T13:14:57.985Z,995.89
2018-03-28T13:16:07.309Z,995.88
2018-03-28T13:17:16.368Z,995.86
2018-03-28T13:18:25.457Z,995.82
2018-03-28T13:19:34.828Z,995.77
2018-03-28T13:20:44.258Z,995.77
2018-03-28T13:21:53.311Z,995.7
2018-03-28T13:23:02.930Z,995.66
2018-03-28T13:24:12.388Z,995.64
2018-03-28T13:25:21.797Z,995.63
2018-03-28T13:26:31.166Z,995.57
2018-03-28T13:27:40.477Z,995.58
2018-03-28T13:28:49.446Z,995.49
2018-03-28T13:29:58.103Z,995.39
2018-03-28T13:31:07.035Z,995.33
2018-03-28T13:32:15.977Z,995.23
2018-03-28T13:33:24.826Z,995.23
2018-03-28T13:34:33.846Z,995.18
2018-03-28T13:35:43.092Z,995.13
2018-03-28T13:36:52.373Z,995.02
2018-03-28T13:38:01.931Z,994.96
2018-03-28T13:39:11.136Z,994.95
2018-03-28T13:40:20.146Z,994.91
2018-03-28T13:41:29.157Z,994.85
2018-03-28T13:42:38.373Z,994.86
2018-03-28T13:43:47.400Z,994.77
2018-03-28T13:45:28.749Z,994.69
2018-03-28T13:46:37.848Z,994.7
2018-03-28T13:47:46.829Z,994.69
2018-03-28T13:48:56.347Z,994.64
2018-03-28T13:50:05.335Z,994.64
2018-03-28T13:51:14.133Z,994.69
2018-03-28T13:52:22.867Z,994.65
2018-03-28T13:53:31.924Z,994.73
2018-03-28T13:54:40.920Z,994.74
2018-03-28T13:55:50.472Z,994.65
2018-03-28T13:56:59.186Z,994.58
2018-03-28T13:58:08.149Z,994.6
2018-03-28T13:59:17.852Z,994.55
2018-03-28T14:00:26.809Z,994.57
2018-03-28T14:01:36.295Z,994.61
2018-03-28T14:02:45.500Z,994.49
2018-03-28T14:03:54.575Z,994.49
2018-03-28T14:05:03.797Z,994.45
2018-03-28T14:06:13.532Z,994.46
2018-03-28T14:07:22.516Z,994.43
2018-03-28T14:08:31.808Z,994.4
2018-03-28T14:09:41.068Z,994.33